Date,TemperatureHighF,TemperatureAvgF,TemperatureLowF,DewpointHighF,DewpointAvgF,DewpointLowF,HumidityHigh,HumidityAvg,HumidityLow,PressureMaxIn,PressureMinIn,WindSpeedMaxMPH,WindSpeedAvgMPH,GustSpeedMaxMPH,PrecipitationSumIn
2013-1-3,38.7,34.0,31.5,21.1,19.9,18.0,64,56,46,30.29,30.26,7,2,7,0.00
2013-1-4,45.9,36.1,27.9,23.5,20.6,-0.2,67,54,22,30.28,29.85,14,5,14,0.00
2013-1-5,50.9,39.8,31.1,34.2,22.1,16.4,81,51,26,30.04,29.86,11,3,11,0.00
2013-1-6,50.7,44.6,38.8,35.4,31.6,29.0,79,61,49,29.87,29.73,17,4,17,0.00
2013-1-7,48.9,38.8,27.7,29.9,24.7,20.7,78,58,37,30.11,29.83,11,2,11,0.00
2013-1-8,56.5,36.9,23.4,36.2,27.9,19.1,87,72,45,30.10,30.01,6,1,6,0.00
2013-1-9,60.6,47.0,30.0,48.5,39.4,4.7,91,76,59,30.09,30.01,9,2,9,0.20
2013-1-10,59.5,49.8,37.0,40.3,32.6,25.5,76,53,29,30.22,30.09,8,2,8,0.00
2013-1-11,49.1,42.9,39.9,41.1,38.0,33.6,99,85,57,30.10,29.80,7,2,7,0.05
2013-1-12,74.5,55.7,40.6,59.8,51.3,40.4,99,87,60,29.83,29.77,7,2,7,0.00
2013-1-13,71.6,61.1,56.1,61.4,57.8,55.1,99,90,66,29.79,29.69,10,3,10,0.00
2013-1-14,61.3,55.7,48.9,59.5,54.3,48.7,99,95,85,29.92,29.72,7,2,7,0.57
2013-1-15,48.9,41.9,37.8,48.7,41.5,37.5,99,99,97,29.95,29.77,8,2,8,1.61
2013-1-16,49.3,41.5,37.4,48.3,40.8,37.1,99,97,85,29.77,29.61,8,1,8,0.30
2013-1-17,47.5,39.7,33.8,45.5,37.5,32.7,98,92,75,29.82,28.17,8,2,8,0.94
2013-1-18,43.7,35.2,27.7,33.4,23.5,17.9,93,64,39,30.16,29.82,10,3,10,0.02
2013-1-19,55.2,35.8,22.1,33.3,25.3,17.6,92,69,25,30.10,29.60,9,2,9,0.01
2013-1-20,58.1,45.4,33.1,34.6,28.1,21.0,83,52,29,30.31,29.51,15,5,15,0.00
2013-1-21,54.7,40.7,28.4,26.5,16.8,-0.4,70,41,22,29.60,29.40,20,6,20,0.00
2013-1-22,32.7,25.6,19.2,1.7,-5.1,-65.2,29,26,1,29.77,29.50,15,6,15,0.00
2013-1-23,33.1,24.5,15.4,17.9,3.0,-8.8,62,40,22,29.93,29.75,12,6,12,0.00
2013-1-24,33.8,27.3,18.1,19.4,4.5,-7.0,62,39,22,30.25,29.72,15,6,15,0.00
2013-1-25,23.5,20.2,16.2,17.7,10.5,0.3,82,66,45,30.22,29.79,9,2,9,0.00
2013-1-26,43.2,31.8,16.3,27.0,20.8,11.9,88,64,51,30.15,29.78,12,4,12,0.06
2013-1-27,35.4,31.0,24.6,25.2,21.0,14.9,79,66,59,30.32,30.15,11,2,11,0.00
2013-1-28,56.5,40.3,32.0,42.6,34.9,24.4,95,82,58,30.19,28.62,7,2,7,0.06
2013-1-29,76.1,58.9,37.6,52.8,47.3,37.1,99,69,43,29.94,29.78,11,3,11,0.00
2013-1-30,66.4,60.1,50.4,63.1,57.9,47.5,99,93,83,29.79,29.14,16,8,16,2.17
2013-1-31,54.0,39.5,28.4,50.7,25.0,-13.9,98,57,41,29.70,29.18,21,10,21,0.02
2013-2-1,40.5,26.2,18.0,30.7,8.2,-4.5,88,48,24,30.26,29.54,19,6,19,0.00
2013-2-2,34.9,25.1,14.5,27.1,14.1,2.8,85,64,35,30.25,29.90,11,2,11,0.00
2013-2-3,42.6,35.2,30.9,27.8,22.8,15.6,85,61,48,29.91,29.75,20,6,20,0.00
2013-2-4,40.5,33.7,28.4,23.0,19.8,15.8,76,57,44,30.01,29.84,11,2,11,0.00
2013-2-5,54.3,40.7,27.9,37.8,30.7,20.0,83,68,50,29.87,29.78,17,3,17,0.00
2013-2-6,55.6,43.6,31.3,34.8,28.1,22.6,87,57,30,30.21,29.86,12,3,12,0.00
2013-2-7,39.2,35.7,30.0,31.5,27.9,23.3,93,73,64,30.28,30.02,8,2,8,0.01
2013-2-8,54.0,38.8,32.7,41.7,32.2,23.3,96,78,52,30.02,29.74,17,4,17,0.24
2013-2-9,36.5,34.4,32.2,23.6,19.5,13.3,60,54,44,30.13,29.96,17,8,17,0.00
2013-2-10,46.9,40.4,29.5,34.8,21.5,13.9,87,49,33,29.94,29.69,11,4,11,0.02
2013-2-11,62.6,47.8,37.6,51.2,39.7,20.5,99,78,29,30.41,29.36,16,4,16,0.02
2013-2-12,60.1,48.7,41.9,29.9,23.5,17.7,53,38,23,30.04,29.42,14,6,14,0.00
2013-2-13,43.3,41.4,37.9,42.8,39.0,31.5,99,91,74,29.93,29.63,11,3,11,0.13
2013-2-14,53.8,42.3,30.6,32.5,27.9,23.2,80,59,31,30.04,29.82,11,3,11,0.00
2013-2-15,60.1,42.6,27.9,40.3,31.2,23.3,90,67,29,30.07,29.90,12,3,12,0.00
2013-2-16,39.7,35.5,27.5,29.9,20.3,9.1,68,54,38,30.00,29.85,14,4,14,0.00
2013-2-17,32.7,27.2,21.6,16.8,2.3,-5.1,68,35,24,30.28,29.95,15,6,15,0.00
2013-2-18,52.9,33.0,14.7,23.9,13.3,3.0,67,46,23,30.40,30.20,9,2,9,0.00
2013-2-19,56.5,41.9,32.0,42.0,25.2,9.1,86,55,23,30.21,29.86,17,5,17,0.01
2013-2-20,47.1,36.7,29.8,14.7,9.1,2.7,46,32,21,30.22,30.01,17,6,17,0.00
2013-2-21,52.7,38.0,23.9,22.5,14.6,8.8,56,40,22,30.32,30.18,10,3,10,0.00
2013-2-22,39.0,34.9,30.7,27.7,23.2,16.5,75,63,43,30.38,30.23,11,3,11,0.01
2013-2-23,53.6,44.4,34.2,42.6,38.2,31.8,94,79,64,30.03,29.81,8,2,8,0.00
2013-2-24,58.3,47.1,37.9,42.7,28.4,4.4,97,53,23,30.07,29.79,14,4,14,0.00
2013-2-25,37.9,31.3,27.5,23.7,21.0,18.5,76,65,52,30.18,30.07,4,1,4,0.00
2013-2-26,40.5,40.2,39.9,40.2,39.9,39.7,99,99,99,29.92,29.89,3,1,3,0.85
2013-2-27,51.6,44.0,38.1,40.9,35.8,31.8,99,75,49,30.03,29.85,13,4,13,0.01
2013-2-28,42.8,39.0,35.4,33.2,27.2,24.4,78,63,52,30.11,29.95,15,6,15,0.00
2013-3-1,41.4,38.3,33.4,27.8,24.9,20.6,72,58,51,30.18,30.06,11,4,11,0.00
2013-3-2,39.0,34.5,31.5,23.6,18.9,15.2,57,52,45,30.20,30.12,12,5,12,0.00
2013-3-3,39.7,31.5,27.5,20.5,14.5,7.3,57,49,41,30.25,30.14,14,6,14,0.00
2013-3-4,50.4,35.8,25.7,16.5,9.6,4.7,51,35,21,30.35,30.23,12,5,12,0.00
2013-3-5,48.7,39.5,32.9,35.7,27.5,15.7,93,64,43,30.33,29.91,12,3,12,0.56
2013-3-6,43.2,36.8,32.5,32.4,29.2,25.9,94,74,59,30.34,29.87,18,5,18,0.21
2013-3-7,46.6,39.6,37.4,29.6,27.0,23.7,67,61,49,30.51,30.33,14,6,14,0.00
2013-3-8,52.5,43.0,37.6,26.9,24.7,21.3,62,49,32,30.60,29.05,15,6,15,0.00
2013-3-9,62.1,45.7,30.7,31.8,26.9,21.8,72,50,26,30.63,30.51,10,3,10,0.09
2013-3-10,65.7,48.4,31.3,36.2,30.3,24.7,85,53,28,30.58,30.45,12,2,12,0.00
2013-3-11,59.4,49.2,37.4,51.4,37.3,26.0,78,64,40,30.48,30.16,10,3,10,0.00
2013-3-12,59.0,52.5,39.4,54.9,43.4,30.3,98,73,44,30.16,29.74,17,5,17,0.52
2013-3-13,49.8,39.4,32.5,33.2,25.7,14.6,84,59,35,30.14,29.95,17,6,17,0.00
2013-3-14,49.6,37.9,28.8,20.6,15.5,9.4,57,41,23,30.22,30.11,17,7,17,0.00
2013-3-15,64.6,46.8,26.4,37.7,26.2,13.1,68,46,31,30.15,29.85,15,4,15,0.00
2013-3-16,77.9,57.7,40.1,55.4,45.6,34.0,99,68,34,29.87,29.62,17,4,17,0.02
2013-3-17,52.7,52.5,52.3,49.1,48.9,48.9,88,88,87,29.87,29.86,4,2,4,0.00
2013-3-19,57.9,50.3,42.8,25.0,15.3,6.6,28,25,21,30.04,29.86,11,7,11,0.00
2013-3-20,55.9,43.3,29.8,26.6,13.5,3.8,57,31,20,30.07,29.78,17,5,17,0.00
2013-3-21,40.6,32.8,26.4,28.5,12.4,3.1,68,43,25,29.97,29.77,16,6,16,0.00
2013-3-22,36.1,31.4,23.0,13.7,10.6,6.7,55,42,36,30.04,29.96,14,6,14,0.00
2013-3-23,58.5,43.9,32.7,27.7,19.4,11.8,68,39,22,30.04,29.90,11,4,11,0.00
2013-3-24,42.4,35.5,31.5,33.2,28.8,22.1,99,79,45,29.94,29.60,13,2,13,0.00
2013-3-25,45.0,36.1,29.5,39.1,28.9,23.4,99,78,45,29.77,29.54,16,4,16,0.76
2013-3-26,46.0,39.8,34.5,29.9,26.9,23.8,68,60,45,30.10,29.75,12,5,12,0.00
2013-3-27,47.1,39.1,32.4,29.5,25.4,22.9,74,58,44,30.21,30.09,14,5,14,0.00
2013-3-28,52.9,43.0,34.5,29.0,24.8,20.2,67,50,32,30.26,30.18,16,5,16,0.00
2013-3-29,60.6,44.7,30.0,31.3,25.4,20.8,77,51,23,30.30,30.15,12,3,12,0.00
2013-3-30,64.2,49.0,31.3,36.3,29.7,24.1,83,51,23,30.25,30.07,10,2,10,0.00
2013-3-31,60.8,49.5,43.0,54.3,44.2,33.8,99,83,59,30.08,29.78,9,2,9,0.24
2013-4-1,52.5,46.8,45.9,45.9,41.0,39.9,82,80,71,29.85,29.83,10,8,10,0.00
2013-4-2,55.4,47.1,30.7,40.5,24.9,12.0,81,48,20,30.16,29.85,14,6,14,0.00
2013-4-3,58.1,45.3,31.3,23.1,15.8,9.0,57,32,20,30.32,30.16,13,4,13,0.00
2013-4-4,42.4,36.3,32.9,33.4,22.1,11.5,99,60,31,30.38,30.00,11,2,11,0.11
2013-4-5,65.7,48.6,33.8,45.5,36.0,29.8,99,68,27,30.05,29.90,11,3,11,0.33
2013-4-6,62.1,50.8,35.8,37.3,30.7,22.9,85,49,26,30.27,30.04,12,3,12,0.00
2013-4-7,72.7,56.3,40.1,46.3,40.0,24.8,84,56,34,30.24,30.05,15,4,15,0.00
2013-4-8,80.1,63.4,43.9,53.0,47.7,41.4,94,61,30,30.14,30.01,17,4,17,0.00
2013-4-9,87.8,70.9,54.5,58.2,53.1,49.6,85,57,32,30.17,30.04,11,3,11,0.01
2013-4-10,92.3,76.4,60.1,60.7,56.0,48.3,83,53,25,30.09,29.92,12,4,12,0.00
2013-4-11,84.9,72.5,55.8,62.4,57.7,54.1,95,62,40,29.95,29.77,14,5,14,0.00
2013-4-12,79.5,68.0,59.4,67.9,56.0,38.6,99,70,27,29.82,29.67,17,5,17,0.63
2013-4-13,75.7,62.4,51.4,43.1,36.0,25.0,62,40,17,30.02,29.81,13,5,13,0.00
2013-4-14,78.8,66.7,53.4,47.2,38.1,31.7,58,36,22,32.01,29.94,11,3,11,0.00
2013-4-15,65.5,58.1,53.1,55.3,53.6,47.2,98,86,53,30.19,29.98,14,4,14,0.26
2013-4-16,77.5,64.2,56.5,63.8,58.8,54.7,99,84,55,30.24,30.10,12,3,12,0.01
2013-4-17,82.2,67.7,57.0,65.0,60.6,56.8,99,80,48,30.16,30.06,8,2,8,0.00
2013-4-18,78.3,68.8,59.5,64.3,60.8,56.6,97,78,50,30.11,29.94,11,3,11,0.00
2013-4-19,71.4,65.5,51.4,66.8,60.7,40.0,99,84,64,29.94,29.61,14,5,14,0.52
2013-4-20,63.5,52.4,42.4,41.1,32.6,24.1,68,49,23,30.23,29.81,12,5,12,0.00
2013-4-21,58.8,47.9,34.5,37.7,33.7,29.2,88,60,40,30.44,30.22,11,3,11,0.00
2013-4-22,45.5,44.1,44.1,36.3,36.3,35.9,74,74,69,30.41,30.37,2,1,2,0.00
2013-4-23,44.1,44.1,44.1,36.3,36.3,36.3,74,74,74,30.41,30.41,1,1,1,0.00
2013-4-24,44.1,44.1,44.1,36.3,36.3,36.3,74,74,74,30.41,30.41,1,1,1,0.00
2013-4-25,44.1,44.1,44.1,36.3,36.3,36.3,74,74,74,30.41,30.41,1,1,1,0.00
2013-4-26,44.1,44.1,44.1,36.3,36.3,36.3,74,74,74,30.41,30.41,1,1,1,0.00
2013-4-27,44.1,44.1,44.1,36.3,36.3,36.3,74,74,74,30.41,30.41,1,1,1,0.00
2013-4-28,44.1,44.1,44.1,36.3,36.3,36.3,74,74,74,30.41,30.41,1,1,1,0.00
2013-4-29,44.1,44.1,44.1,36.3,36.3,36.3,74,74,74,30.41,30.41,1,1,1,0.00
2013-4-30,44.1,44.1,44.1,36.3,36.3,36.3,74,74,74,30.41,30.41,1,1,1,0.00
2013-5-1,44.1,44.1,44.1,36.3,36.3,36.3,74,74,74,30.41,30.41,1,1,1,0.00
2013-5-2,44.1,44.1,44.1,36.3,36.3,36.3,74,74,74,30.41,30.41,1,1,1,0.00
2013-5-3,44.1,44.1,44.1,36.3,36.3,36.3,74,74,74,30.41,30.41,1,1,1,0.00
2013-5-4,44.1,44.1,44.1,36.3,36.3,36.3,74,74,74,30.41,30.41,1,1,1,0.00
2013-5-5,56.8,46.6,44.1,52.3,39.8,36.3,96,77,74,30.41,29.47,12,2,12,0.44
2013-5-6,57.2,54.6,52.0,56.9,53.8,50.5,99,97,87,29.51,29.32,14,5,14,1.65
2013-5-7,65.1,56.3,50.2,58.4,55.2,49.9,99,96,73,29.40,29.32,9,1,9,0.58
2013-5-8,61.2,53.6,48.9,57.2,52.6,14.1,99,97,85,29.46,29.38,5,1,5,0.30
2013-5-9,82.0,64.1,47.7,61.8,54.4,47.4,99,75,38,29.52,29.42,9,2,9,0.00
2013-5-10,83.8,68.1,54.7,63.7,58.5,53.9,98,75,44,29.53,29.39,13,3,13,0.13
2013-5-11,79.0,65.4,60.3,66.9,62.3,60.0,99,90,58,29.42,29.25,14,1,14,0.14
2013-5-12,65.7,57.8,45.9,60.4,42.5,30.0,99,61,30,29.52,29.29,15,4,15,0.00
2013-5-13,64.4,51.7,37.4,43.6,35.0,25.7,94,57,25,29.63,29.51,16,3,16,0.00
2013-5-14,71.8,54.5,36.1,47.9,39.9,30.5,99,63,24,29.67,29.48,12,2,12,0.00
2013-5-15,51.6,50.5,49.1,48.5,47.5,46.7,93,89,86,29.49,29.44,2,0,2,0.00
2013-5-16,85.1,75.5,66.7,60.8,58.5,55.2,77,57,42,29.47,29.36,13,4,13,0.00
2013-5-17,82.2,71.5,61.2,68.6,61.7,57.4,95,73,48,29.60,29.47,5,1,5,0.06
2013-5-18,68.5,65.3,62.8,65.6,63.6,61.9,99,94,86,29.65,29.57,7,2,7,0.12
2013-5-19,69.8,66.1,63.0,68.8,65.5,62.1,99,98,95,29.62,29.52,7,2,7,0.91
2013-5-20,80.2,69.3,65.1,71.3,67.1,64.9,99,93,67,29.58,29.48,8,1,8,0.02
2013-5-21,88.0,74.9,64.8,72.2,67.8,64.5,99,81,49,29.51,29.39,8,2,8,0.01
2013-5-22,86.4,71.6,60.3,72.9,66.7,60.0,99,86,63,29.47,29.36,11,2,11,0.11
2013-5-23,79.0,69.3,63.3,71.2,66.4,61.8,99,91,73,29.97,29.42,9,2,9,0.32
2013-5-24,63.3,63.3,63.3,62.5,62.5,62.5,97,97,97,29.88,29.88,2,2,2,0.32
2013-5-25,63.3,63.3,63.3,62.5,62.5,62.5,97,97,97,29.88,29.88,2,2,2,0.32
2013-5-26,63.3,63.3,63.3,62.5,62.5,62.5,97,97,97,29.88,29.88,2,2,2,0.32
2013-5-27,76.5,67.0,54.7,62.5,55.4,42.6,97,69,41,30.29,29.88,8,3,8,0.32
2013-5-28,85.3,70.8,54.5,68.2,61.1,53.7,99,74,47,30.22,30.11,13,2,13,0.00
2013-5-29,64.9,64.0,63.1,61.3,60.9,60.5,91,90,88,30.16,30.15,2,0,2,0.00
2013-5-30,70.5,67.4,64.4,65.1,63.8,62.0,92,88,83,30.22,30.19,2,0,2,0.00
2013-5-31,87.3,73.8,59.9,69.3,64.3,59.6,99,75,48,30.22,30.10,11,2,11,0.00
2013-6-1,87.8,77.5,60.4,72.0,66.4,60.0,99,72,54,30.12,30.06,11,3,11,0.00
2013-6-2,86.9,79.9,67.3,71.5,68.7,67.0,99,72,55,30.06,29.86,6,4,11,0.39
2013-6-3,84.2,71.5,62.8,71.0,66.4,61.3,99,85,53,29.94,28.31,9,2,9,0.13
2013-6-4,79.9,68.6,57.4,65.3,61.3,55.7,99,80,48,30.07,29.93,9,4,9,0.00
2013-6-5,74.7,66.7,57.9,66.5,62.3,55.4,99,86,66,30.11,29.99,9,5,9,0.01
2013-6-6,67.3,64.0,60.4,67.0,63.5,60.2,99,98,93,29.99,29.78,5,1,5,1.70
2013-6-7,77.0,69.0,64.0,71.9,67.4,62.6,99,95,81,29.80,29.59,7,2,7,0.25
2013-6-8,83.3,70.3,61.5,68.8,63.3,58.3,99,81,46,30.06,29.77,9,2,9,0.08
2013-6-9,86.4,74.0,63.0,71.9,67.4,62.1,99,82,52,30.11,30.00,11,2,11,0.07
2013-6-10,81.0,72.2,68.4,74.0,69.9,67.3,99,93,73,30.04,29.81,14,2,14,0.39
2013-6-11,84.2,76.0,64.2,69.0,65.4,63.0,99,71,52,29.91,29.83,11,3,11,0.12
2013-6-12,92.5,73.0,63.7,74.0,68.2,62.8,99,86,50,29.91,29.81,8,1,8,0.00
2013-6-13,92.7,78.1,67.1,74.4,70.2,56.6,97,79,48,29.84,29.56,13,3,13,0.24
2013-6-14,81.5,70.9,60.4,62.2,57.8,53.5,89,64,43,30.10,29.84,10,3,10,0.00
2013-6-15,85.6,70.3,56.3,64.0,59.6,55.8,99,72,40,30.19,30.09,8,2,8,0.00
2013-6-16,87.6,74.7,60.4,72.0,65.4,58.5,95,75,50,30.13,30.04,10,2,10,0.01
2013-6-17,87.3,74.9,66.9,74.1,69.4,66.7,99,84,60,30.10,29.99,12,2,12,0.08
2013-6-18,70.9,68.7,68.5,69.7,68.4,68.2,99,99,96,30.02,29.93,2,0,2,0.00
2013-6-19,68.5,68.5,68.5,68.3,68.3,68.3,99,99,99,29.94,29.94,0,0,1,0.00
2013-6-20,68.5,68.5,68.5,68.3,68.3,68.3,99,99,99,29.94,29.94,0,0,1,0.00
2013-6-21,83.3,72.7,58.8,68.5,64.2,56.7,99,77,55,29.94,29.86,8,2,8,0.53
2013-6-22,85.1,72.3,57.6,70.1,64.7,56.5,98,79,54,29.92,29.78,8,2,8,0.00
2013-6-23,71.1,71.1,71.1,68.3,68.3,68.3,91,91,91,29.84,29.84,2,2,2,0.00
2013-6-24,71.1,71.1,71.1,68.3,68.3,68.3,91,91,91,29.84,29.84,2,2,2,0.00
2013-6-25,71.1,71.1,71.1,68.3,68.3,68.3,91,91,91,29.84,29.84,2,2,2,0.00
2013-6-26,71.1,71.1,71.1,68.3,68.3,68.3,91,91,91,29.84,29.84,2,2,2,0.00
2013-6-28,91.8,81.4,68.9,74.8,68.0,62.3,95,66,42,29.92,29.77,13,4,13,0.61
2013-6-29,86.0,74.4,64.0,72.0,67.2,62.5,98,80,51,29.96,29.82,11,2,11,0.06
2013-6-30,74.3,70.0,67.5,72.3,69.2,67.2,99,97,90,30.02,29.92,4,1,4,0.06
2013-7-1,82.8,74.2,69.1,72.3,70.1,68.7,99,88,66,30.08,29.93,11,2,11,0.05
2013-7-2,75.2,72.2,69.8,73.4,70.6,68.6,98,95,91,30.27,30.07,10,2,10,1.28
2013-7-3,77.7,72.8,70.2,74.5,71.7,69.6,99,96,89,30.34,30.23,6,2,6,1.30
2013-7-4,85.3,75.1,70.3,76.1,72.6,69.8,99,92,67,30.37,30.28,9,2,9,0.74
2013-7-5,85.8,76.3,69.6,76.0,72.1,69.2,99,88,67,31.10,30.27,12,2,12,0.00
2013-7-6,87.3,76.7,69.6,74.3,71.2,68.9,99,85,56,30.34,30.22,10,3,11,0.00
2013-7-7,85.5,75.6,69.4,75.5,72.0,69.2,99,89,69,30.27,30.18,11,2,11,0.00
2013-7-8,85.5,73.9,67.1,73.0,70.2,66.8,99,89,57,30.28,30.20,5,1,5,0.04
2013-7-9,88.9,77.7,69.4,76.1,71.9,68.9,98,84,54,30.25,30.15,7,1,7,0.00
2013-7-10,88.3,72.9,69.3,77.8,71.3,69.0,99,95,64,30.19,30.05,9,1,9,0.76
2013-7-11,87.3,74.6,69.8,75.7,71.4,68.3,99,90,63,30.07,30.00,9,1,9,0.81
2013-7-12,78.3,70.6,66.4,69.0,67.1,65.7,99,89,69,30.17,30.00,8,2,8,0.60
2013-7-13,80.1,72.1,67.5,72.6,69.2,66.2,99,91,76,30.31,30.15,11,2,11,0.43
2013-7-14,86.9,76.8,70.7,73.9,71.4,69.1,98,85,58,30.43,30.31,11,3,11,0.01
2013-7-15,91.4,78.6,69.1,76.6,71.6,68.8,99,81,51,30.44,30.36,8,1,8,0.00
2013-7-16,94.8,79.9,69.8,78.7,71.6,68.5,97,78,47,30.40,30.31,11,2,11,0.00
2013-7-17,94.5,81.0,73.4,80.1,74.1,70.8,97,81,53,30.36,30.25,13,2,13,0.13
2013-7-18,93.0,81.2,72.5,80.0,75.0,71.0,97,83,55,30.28,30.16,8,2,8,0.01
2013-7-19,93.4,80.6,71.6,78.8,74.2,70.7,99,82,53,30.85,30.06,11,2,11,0.00
2013-7-20,73.8,71.2,70.9,71.3,70.1,69.8,97,96,92,30.09,30.06,2,1,2,0.00
2013-7-21,90.9,77.0,70.9,76.3,72.2,67.7,97,86,59,30.06,29.88,14,3,14,0.30
2013-7-22,89.2,78.7,71.2,76.1,73.3,70.7,99,85,58,29.92,29.77,11,2,11,0.01
2013-7-23,91.4,78.8,70.3,74.0,70.5,68.2,95,78,50,29.78,29.69,8,2,8,0.02
2013-7-24,89.8,78.3,68.9,71.8,68.4,63.7,96,74,44,29.87,29.70,8,2,8,0.00
2013-7-25,74.1,68.8,66.7,68.0,64.9,63.5,95,88,81,30.01,29.85,3,0,3,0.00
2013-7-26,82.9,72.6,62.4,69.9,66.3,61.5,98,82,60,30.07,29.98,9,2,9,0.00
2013-7-27,72.0,70.0,68.4,70.0,68.4,67.2,98,95,87,30.01,29.90,7,1,7,0.30
2013-7-28,85.3,73.9,66.0,72.2,68.5,65.7,99,85,55,29.97,29.87,8,1,8,0.01
2013-7-29,84.4,71.3,59.0,66.8,60.2,55.2,97,71,41,30.16,27.85,8,2,8,0.00
2013-7-30,84.0,69.9,57.0,67.0,61.0,56.1,97,76,46,30.20,30.11,8,2,8,0.00
2013-7-31,77.5,69.3,64.2,70.2,66.3,63.1,99,91,67,30.12,29.97,5,1,5,0.02
2013-8-1,89.1,74.0,65.8,72.4,67.7,64.2,99,83,48,29.97,29.82,10,2,10,0.01
2013-8-2,87.8,73.4,62.6,69.2,64.0,60.8,99,76,43,30.00,29.89,8,2,8,0.00
2013-8-3,89.6,73.4,62.8,72.4,66.2,61.0,96,80,45,29.98,29.89,8,1,8,0.00
2013-8-4,87.1,74.5,65.5,67.5,63.1,57.3,97,71,39,30.03,29.89,10,2,10,0.00
2013-8-5,79.9,69.8,58.5,66.5,61.8,57.3,97,77,54,30.07,29.97,10,2,10,0.00
2013-8-6,85.3,73.5,65.1,73.0,68.7,63.9,97,86,64,30.00,27.70,10,2,10,0.25
2013-8-7,79.3,73.2,69.4,74.1,71.3,68.9,98,94,82,30.04,29.98,7,2,7,0.02
2013-8-8,80.6,73.3,70.0,75.2,71.7,69.4,98,95,79,30.02,29.96,7,1,7,0.35
2013-8-9,90.9,78.0,68.7,78.7,73.5,68.5,99,87,59,29.98,29.92,13,2,13,0.06
2013-8-10,92.7,79.4,71.8,78.2,73.2,70.0,99,83,52,30.05,29.97,12,2,12,0.00
2013-8-11,91.2,77.3,70.9,75.4,72.4,69.3,98,86,53,30.08,29.98,9,2,9,0.63
2013-8-12,82.6,78.1,69.4,73.8,71.7,68.6,98,81,72,30.02,29.99,10,3,10,0.01
2013-8-13,82.4,79.2,0.0,75.5,71.5,65.1,96,77,72,30.00,29.88,8,3,8,0.43
2013-8-14,79.2,70.4,60.4,65.6,57.7,52.1,92,66,43,30.19,29.94,9,3,9,0.00
2013-8-15,76.6,63.5,51.8,60.0,55.6,51.3,99,78,47,30.25,30.16,9,1,9,0.00
2013-8-16,77.0,63.4,51.8,62.1,57.0,51.3,99,82,54,30.26,30.18,9,1,9,0.01
2013-8-17,71.8,62.6,55.2,63.4,59.4,54.2,99,90,62,30.30,30.24,9,1,9,0.33
2013-8-18,70.9,65.7,62.2,68.3,64.6,61.7,99,96,90,30.30,30.21,5,1,5,1.43
2013-8-19,75.9,68.1,64.0,71.6,66.5,63.2,99,95,85,30.27,30.15,5,1,5,0.11
2013-8-20,66.9,64.7,64.4,66.7,64.4,64.1,99,99,99,30.19,30.17,3,0,3,0.00
2013-8-21,84.6,74.1,64.4,75.7,70.4,64.1,99,89,69,30.29,30.17,8,1,8,0.00
2013-8-22,88.3,78.7,69.4,74.9,71.4,67.6,96,79,56,30.21,30.07,9,2,9,0.09
2013-8-23,86.4,73.2,63.0,73.2,68.4,61.5,97,86,57,30.20,30.03,13,2,13,0.02
2013-8-24,82.0,68.8,57.4,67.6,60.8,56.9,99,79,44,30.39,30.20,8,2,8,0.01
2013-8-25,80.8,68.0,57.6,66.5,60.6,57.3,99,80,49,31.19,30.35,7,1,7,0.00
2013-8-26,60.8,58.2,57.0,59.8,57.9,56.8,99,99,96,30.39,30.33,2,0,2,0.00
2013-8-27,58.1,58.1,58.1,57.8,57.8,57.8,99,99,99,30.34,30.34,0,0,1,0.00
2013-8-28,58.1,58.1,58.1,57.8,57.8,57.8,99,99,99,30.34,30.34,0,0,1,0.00
2013-8-29,58.1,58.1,58.1,57.8,57.8,57.8,99,99,99,30.34,30.34,0,0,1,0.00
2013-8-30,58.1,58.1,58.1,57.8,57.8,57.8,99,99,99,30.34,30.34,0,0,1,0.00
2013-8-31,72.5,61.9,58.1,70.0,61.2,57.8,99,98,87,30.34,29.92,5,0,5,0.25
2013-9-1,88.7,74.6,64.9,76.1,70.3,64.7,99,88,62,30.66,29.85,9,1,9,0.22
2013-9-2,90.7,77.0,67.1,75.1,70.2,66.4,98,82,52,29.95,29.85,8,2,8,0.01
2013-9-3,90.0,77.3,67.5,72.2,67.1,58.9,94,73,46,30.04,28.36,9,2,9,0.00
2013-9-4,83.5,70.4,56.7,67.9,61.2,55.8,98,75,43,30.17,30.04,8,2,8,0.00
2013-9-5,88.2,72.5,60.4,65.5,61.3,58.4,97,71,40,30.19,30.10,11,3,11,0.00
2013-9-6,78.8,66.6,57.0,64.2,59.4,55.8,99,80,47,30.28,30.17,8,1,8,0.00
2013-9-7,82.4,67.0,53.8,68.6,61.3,53.0,99,84,56,30.20,30.03,10,2,10,0.00
2013-9-8,88.9,71.6,60.1,73.4,65.9,59.8,99,84,52,30.77,29.97,10,1,10,0.00
2013-9-9,82.0,70.5,64.2,69.7,66.7,63.4,99,88,64,30.24,30.06,8,1,8,0.00
2013-9-10,91.8,75.2,65.1,77.6,70.5,64.9,99,87,52,30.28,27.93,6,1,6,0.07
2013-9-11,70.7,69.4,68.4,69.8,68.7,67.8,99,98,97,30.25,30.21,1,0,1,0.00
2013-9-12,91.2,78.9,69.6,73.8,69.4,64.7,96,75,47,30.11,29.88,8,2,8,0.00
2013-9-13,81.3,71.6,60.6,67.0,56.9,48.3,95,63,33,30.00,29.84,7,3,7,0.00
2013-9-14,74.7,60.7,49.5,55.2,50.7,48.4,97,73,43,30.19,30.00,7,2,7,0.00
2013-9-15,77.9,61.9,46.8,63.2,55.4,46.5,99,82,54,30.28,30.16,7,2,7,0.00
2013-9-16,76.3,65.8,55.9,64.4,59.8,53.9,99,83,58,30.27,30.14,6,2,6,0.00
2013-9-17,71.6,56.8,49.1,57.3,52.8,48.8,99,87,53,30.41,30.28,6,1,6,0.00
2013-9-18,69.1,57.6,46.0,58.5,53.1,45.2,99,86,64,30.36,30.22,8,2,8,0.00
2013-9-19,73.4,65.0,59.4,65.7,61.4,57.9,96,88,74,30.24,30.13,5,1,5,0.00
2013-9-20,68.5,65.6,62.8,66.7,64.4,61.3,99,96,90,30.14,30.01,5,1,5,0.43
2013-9-21,68.4,64.9,58.5,68.1,64.5,58.2,99,99,97,30.01,29.77,8,2,8,0.45
2013-9-22,76.8,64.2,54.3,61.3,56.9,52.6,99,80,48,29.99,29.82,8,2,9,0.01
2013-9-23,73.0,60.6,53.6,59.0,55.2,52.5,97,84,56,30.13,29.99,9,2,9,0.00
2013-9-24,77.7,63.2,54.1,63.2,57.1,52.3,99,82,56,30.15,29.99,8,2,8,0.00
2013-9-25,71.1,62.1,54.3,62.7,58.8,53.5,99,90,73,30.02,29.93,8,1,8,0.00
2013-9-26,76.1,69.0,59.7,65.3,57.7,52.4,99,71,46,30.06,29.96,8,1,8,0.00
2013-9-27,75.7,75.7,75.7,55.3,55.3,55.3,49,49,49,30.04,30.04,2,2,8,0.00
2013-9-28,75.7,75.7,75.7,55.3,55.3,55.3,49,49,49,30.04,30.04,2,2,8,0.00
2013-9-29,75.7,75.7,75.7,55.3,55.3,55.3,49,49,49,30.04,30.04,2,2,8,0.00
2013-9-30,75.7,75.7,75.7,55.3,55.3,55.3,49,49,49,30.04,30.04,2,2,8,0.00
2013-10-1,75.7,75.7,75.7,55.3,55.3,55.3,49,49,49,30.04,30.04,2,2,8,0.00
2013-10-2,75.7,74.5,61.3,59.9,55.7,55.3,93,53,49,30.11,29.92,2,2,8,0.00
2013-10-3,85.5,69.1,59.2,67.0,62.2,57.9,96,81,47,30.14,30.06,7,1,7,0.00
2013-10-4,89.2,71.7,59.5,68.0,63.7,58.8,99,79,43,30.14,30.06,10,2,10,0.00
2013-10-5,88.5,72.9,61.5,69.2,64.7,60.7,99,79,45,30.14,30.03,9,2,9,0.00
2013-10-6,84.6,70.1,59.0,69.5,63.7,58.7,99,82,52,30.05,29.91,12,2,12,0.00
2013-10-7,72.1,64.9,51.1,68.5,60.0,48.8,99,85,60,30.08,29.80,11,2,11,0.00
2013-10-8,69.6,57.6,47.5,50.2,47.5,45.3,96,72,43,30.25,30.06,11,3,11,0.00
2013-10-9,67.5,56.3,47.5,51.3,48.9,44.8,99,78,47,30.26,30.16,11,2,11,0.00
2013-10-10,67.8,59.0,51.3,60.4,54.4,46.4,97,85,74,30.16,29.98,11,4,11,0.00
2013-10-11,61.9,60.6,58.6,57.3,56.5,55.6,92,86,84,29.98,29.93,7,3,7,0.00
2013-10-12,68.5,64.1,60.8,63.5,60.6,57.4,97,88,82,30.13,29.98,4,2,4,0.00
2013-10-13,67.8,63.3,60.3,62.8,60.9,59.4,98,92,84,30.26,30.12,3,1,3,0.00
2013-10-14,71.4,62.1,56.3,62.5,59.5,55.2,99,92,70,30.28,30.18,4,1,4,0.00
2013-10-15,73.2,58.8,50.0,60.4,53.7,49.7,99,85,45,30.23,30.08,6,1,6,0.00
2013-10-16,72.0,61.8,52.2,61.6,57.2,51.6,98,86,66,30.09,29.94,7,1,7,0.00
2013-10-17,67.8,63.4,58.3,65.3,61.1,53.6,98,92,79,29.95,29.79,11,2,11,0.00
2013-10-18,68.5,57.3,47.1,53.6,46.6,41.9,96,69,43,30.04,29.91,10,2,10,0.00
2013-10-19,59.5,54.4,46.4,55.0,51.4,45.6,99,90,76,29.99,29.80,6,1,6,0.00
2013-10-20,66.9,55.1,38.8,54.9,43.8,35.1,94,69,34,30.00,29.82,9,2,9,0.00
2013-10-21,69.8,51.2,36.5,52.1,44.7,35.5,99,81,50,30.04,29.87,11,1,11,0.00
2013-10-22,71.8,56.6,46.9,53.7,49.5,46.3,99,79,46,29.87,29.70,10,1,10,0.00
2013-10-23,62.2,51.3,42.4,51.9,44.2,31.0,99,79,43,29.88,29.60,13,3,13,0.00
2013-10-24,55.6,44.0,32.5,37.3,33.0,28.8,86,66,42,30.06,29.87,11,3,11,0.00
2013-10-25,53.6,41.4,30.2,35.5,29.3,25.2,89,65,35,30.22,30.05,11,3,11,0.00
2013-10-26,60.6,44.0,28.4,40.3,29.9,23.7,89,62,26,30.22,29.89,9,2,9,0.00
2013-10-27,69.6,52.2,36.5,44.0,38.9,30.8,94,64,33,30.00,29.89,9,2,9,0.00
2013-10-28,53.6,41.2,38.3,47.0,39.6,37.3,98,94,73,30.13,30.00,3,0,3,0.00
2013-10-29,70.5,59.9,50.9,57.5,52.9,50.4,98,79,52,30.24,30.13,4,1,4,0.00
2013-10-30,73.6,60.4,53.4,62.1,55.9,50.7,96,86,65,30.18,30.04,4,1,4,0.00
2013-10-31,69.8,62.5,55.9,60.4,57.9,55.4,99,86,67,30.06,29.71,5,2,5,0.00
2013-11-1,80.2,67.9,56.5,62.6,58.6,48.6,96,74,40,29.70,29.54,11,4,11,0.00
2013-11-2,70.3,60.4,51.4,48.4,39.0,31.1,73,46,29,29.85,29.60,12,4,12,0.00
2013-11-3,51.6,50.5,49.1,38.3,37.5,36.7,64,61,58,29.88,29.85,7,4,7,0.00
2013-11-4,50.9,41.0,30.2,35.6,30.2,28.1,94,68,43,30.44,30.27,4,1,4,0.00
2013-11-5,53.1,44.9,32.5,43.8,36.0,28.3,87,71,54,30.46,30.33,4,1,4,0.18
2013-11-6,69.6,58.0,46.8,52.8,49.7,44.0,96,76,54,30.33,29.99,12,2,12,0.00
2013-11-7,62.8,50.5,42.6,55.7,42.1,26.9,99,75,44,30.03,28.35,17,3,17,0.01
2013-11-8,54.9,42.5,30.7,35.5,25.9,19.6,83,54,26,30.20,30.02,11,3,11,0.00
2013-11-9,59.5,41.1,28.0,33.9,27.9,23.0,86,63,28,30.22,29.99,11,2,11,0.00
2013-11-10,60.6,42.3,34.2,39.7,32.6,28.1,85,70,44,30.01,29.97,12,2,12,0.00
2013-11-12,56.5,43.8,31.1,40.0,26.5,10.8,63,50,38,30.43,30.05,12,6,12,0.00
2013-11-13,48.2,37.4,27.5,20.7,13.9,7.6,65,40,21,30.52,30.42,11,4,11,0.00
2013-11-14,63.9,43.6,28.6,23.0,18.7,13.6,63,41,18,30.43,30.28,10,2,10,0.00
2013-11-15,63.1,47.6,31.1,49.9,29.8,19.6,99,56,20,30.31,30.19,8,2,8,0.39
2013-11-16,55.0,51.5,47.5,53.1,50.8,47.2,99,97,91,30.30,30.22,5,1,5,0.08
2013-11-17,59.7,55.8,53.1,59.5,55.3,52.5,99,98,97,30.25,29.84,8,2,8,0.19
2013-11-18,68.7,59.5,48.7,61.6,38.8,23.3,99,50,21,30.03,29.80,13,5,13,0.09
2013-11-19,54.3,45.1,34.5,30.6,27.7,23.9,73,51,32,30.33,30.01,11,3,11,0.00
2013-11-20,49.6,39.6,30.9,33.3,26.8,23.3,85,62,37,30.49,30.33,11,2,11,0.00
2013-11-21,50.4,45.3,40.5,43.6,38.3,29.8,85,76,64,30.52,30.40,6,1,6,0.00
2013-11-22,67.6,56.1,44.6,57.1,50.3,41.2,94,81,65,30.86,30.09,7,1,7,0.00
2013-11-23,58.8,48.6,33.8,53.5,32.0,12.2,84,55,23,30.24,30.08,14,6,14,0.00
2013-11-24,36.3,28.5,21.4,19.9,1.7,-5.4,85,32,21,30.51,30.24,14,5,14,0.00
2013-11-25,36.9,28.9,19.0,17.2,7.9,2.4,61,42,24,30.51,30.33,9,2,9,0.00
2013-11-26,42.6,35.7,31.3,42.2,31.6,15.2,99,87,45,30.35,29.63,10,1,10,1.49
2013-11-27,45.0,35.9,26.4,44.2,28.0,9.8,99,74,49,30.14,29.57,17,8,17,0.09
2013-11-28,43.7,30.8,23.9,21.0,15.7,9.8,78,55,30,30.43,30.13,11,3,11,0.00
2013-11-29,50.2,34.5,23.2,25.7,21.2,14.9,82,60,34,30.65,30.42,8,2,8,0.00
2013-11-30,41.4,30.0,0.0,25.1,20.9,16.4,82,68,50,30.65,30.35,8,2,8,0.00
2013-12-1,59.4,37.0,22.1,31.4,24.3,18.1,86,64,24,30.35,30.02,8,2,8,0.00
2013-12-2,54.3,43.2,32.2,38.3,34.3,26.8,87,72,53,30.02,29.84,4,1,4,0.00
2013-12-3,59.7,45.4,34.2,43.7,39.4,31.9,97,81,54,29.99,29.87,8,1,8,0.00
2013-12-4,62.1,52.6,41.4,53.7,48.5,40.0,98,86,68,30.08,29.97,8,1,8,0.00
2013-12-5,65.3,59.1,50.9,61.4,56.6,50.1,98,92,83,30.11,30.00,7,1,7,0.01
2013-12-6,74.7,65.8,51.4,66.7,62.0,50.3,99,88,70,30.10,29.91,13,3,13,0.71
2013-12-7,51.4,44.6,39.0,50.3,37.9,31.5,96,78,64,30.48,30.08,8,2,8,0.08
2013-12-8,39.0,31.9,28.8,32.1,27.3,24.8,91,83,65,30.48,30.25,7,1,7,0.02
2013-12-9,52.5,38.7,32.0,47.0,36.3,29.4,97,91,78,30.25,30.04,8,1,8,0.01
2013-12-10,47.5,38.2,31.1,40.4,30.4,16.3,97,75,51,30.26,29.97,15,4,15,0.39
2013-12-11,50.0,35.8,28.6,23.5,18.9,14.1,75,52,25,30.40,30.24,14,4,14,0.00
2013-12-12,39.6,32.7,26.6,23.5,12.2,3.0,71,45,24,30.40,30.26,11,4,11,0.00
2013-12-13,51.1,37.1,27.9,24.8,14.9,7.9,68,42,24,30.33,30.23,12,3,12,0.00
2013-12-14,40.3,36.4,34.3,33.9,31.5,24.5,92,83,56,30.28,29.75,8,2,8,0.37
2013-12-15,48.2,39.2,34.3,39.8,30.4,22.4,97,72,50,30.04,29.70,15,5,15,0.00
2013-12-16,49.1,38.9,31.3,33.0,28.4,23.3,84,66,51,30.13,30.01,15,2,15,0.00
2013-12-17,58.8,41.5,28.6,38.6,31.3,24.1,89,70,38,30.09,29.90,14,3,14,0.02
2013-12-18,46.9,38.1,29.8,25.1,18.9,12.6,60,47,28,30.24,29.99,11,4,11,0.00
2013-12-19,69.3,47.6,34.3,32.7,23.5,14.4,69,42,17,30.23,30.15,13,2,13,0.00
2013-12-20,64.4,46.3,34.2,39.8,33.6,27.3,84,64,31,30.17,30.06,6,1,6,0.00
2013-12-21,68.4,55.3,40.8,62.2,49.8,37.6,94,82,67,30.09,29.98,9,2,9,0.00
2013-12-22,68.9,62.5,57.9,64.5,60.3,56.1,99,93,69,30.09,29.95,17,6,17,0.56
2013-12-23,61.7,52.0,36.1,61.1,47.4,25.3,99,85,64,30.22,29.98,11,4,11,0.54
2013-12-24,43.3,32.5,23.2,27.4,18.6,4.6,74,57,37,30.45,30.20,13,4,13,0.00
2013-12-25,36.7,26.3,17.4,12.8,7.9,3.3,69,47,25,30.52,30.33,10,2,10,0.00
2013-12-26,51.8,33.6,19.2,28.2,18.1,10.6,74,55,30,30.37,30.23,14,3,14,0.00
2013-12-27,55.9,36.5,24.8,23.0,18.3,14.1,72,52,21,30.44,30.34,8,2,8,0.00
2013-12-28,61.3,42.0,28.8,40.0,25.3,19.9,95,55,22,30.38,30.17,6,1,6,0.07
2013-12-29,54.5,44.8,39.7,47.4,41.4,39.4,99,89,71,31.36,29.69,12,3,12,0.80
2013-12-30,47.1,42.3,36.5,39.6,33.0,26.4,86,70,60,30.84,29.91,14,3,14,0.00
2013-12-31,49.1,38.1,28.2,28.3,20.9,10.5,82,52,24,30.34,30.11,16,4,16,0.00
2014-1-1,50.9,36.8,27.9,27.1,22.0,17.5,78,57,27,30.36,30.10,11,3,11,0.00
2014-1-2,41.2,34.3,27.1,36.6,29.2,19.5,95,82,59,31.19,29.63,16,2,16,0.14